Monday, September 01, 2014
13:45 UTC
  |  Log In   |  Register Free
Airport Search:

Lenawee County Airport
(KADG)

Lenawee County Airport Diagram
No Airport Diagram Available

FAA data valid effective July 24, 2014 until September 18, 2014 (unless otherwise noted).

 
 
 
 
 
 
 
 
 
 
 
 
 
 

Current Aviation Weather for Lenawee County Airport (KADG)

The most recent METAR observation for KADG was updated at: 1253 UTC
METAR Summary (Translated METAR)
KADG
011253Z AUTO 21006KT 5SM BR OVC004 22/21 A2992 RMK AO2 SLP127 T02170206
KDUH
(20.4 nm SE from KADG)
011254Z AUTO 21005KT 10SM SCT005 SCT120 23/21 A2992 RMK AO2
TAF Summary (Translated TAF)
KTOL
(20.7 nm SE from KADG)
011120Z 0112/0212 20003KT P6SM SCT015 TEMPO 0112/0115 5SM BR BKN015 FM011500 21010KT P6SM BKN025 FM011700 22012KT P6SM SCT045 FM012100 23014KT P6SM VCTS BKN045CB FM020200 22006KT 6SM HZ VCTS BKN045CB OVC120 FM020900 23010KT 5SM -SHRA BR VCTS OVC025CB
  Airport Weather Conditions for KADG

 Current Weather at ADG
71° F
Fog/Mist
Southwest winds at 6.9 mph
ADG NOAA Radar

Pressure: 29.92 in
Humidity: 94%
Wind: Southwest at 6.9 MPH (6 KT)
Dew Point: 69.1°F
Visibility: 5.00 mi


Airport Weather Forecast for KADG

Translated METAR and TAF for KADG
Translated METAR for KADG (1339 UTC 01 September 2014)
found at http://aviationweather.gov/adds/metars/
 
METAR text: KADG 011332Z AUTO 23011KT 7SM OVC007 22/21 A2993 RMK AO2 CIG 007V011 T02220206
Conditions at: KADG (ADRIAN , MI, US) observed 1332 UTC 01 September 2014
Temperature: 22.2°C (72°F)
Dewpoint: 20.6°C (69°F) [RH = 91%]
Pressure (altimeter): 29.93 inches Hg (1013.6 mb)
Winds: from the SW (230 degrees) at 13 MPH (11 knots; 5.7 m/s)
Visibility: 7 miles (11 km)
Ceiling: 700 feet AGL
Clouds: overcast cloud deck at 700 feet AGL
Weather: automated observation with no human augmentation;
there may or may not be significant weather present at this time
Translated TAF for KADG

There is no translated TAF available for this airport

Find All Airport Services Find A Hotel Find A Rental Car Find A Golf Course Find A Restaurant $100 Hamburger



FBO's on the Field
FBO Company Facility Photos Services Transportation Aviation Fuel Prices: Prices include tax
Catering Weather Repair Courtesy Rental Type 100LL JetA JetA+ MOGAS 8087
 
Lenawee County Airport

This FBO has not yet been rated
FS:Avfuel
Last Updated: Aug-28
Login to update fuel prices
SS:
Contact Lenawee County AirportMore FBO Information
 
Add another FBO Facility Photos Catering Weather Repair Courtesy Rental Type 100LL JetA JetA+ MOGAS 8087
Services Transportation Aviation Fuel Prices: Prices include tax


GlobalAir.com Airport Resource Center model-print
model-print
model-print
model-print